sensor_id;sensor_type;location;lat;lon;timestamp;P1;durP1;ratioP1;P2;durP2;ratioP2
4226;SDS011;2127;51.046;7.080;2024-01-11T00:00:49;0.47;;;0.47;;
4226;SDS011;2127;51.046;7.080;2024-01-11T00:03:17;0.90;;;0.90;;
4226;SDS011;2127;51.046;7.080;2024-01-11T00:05:43;1.05;;;1.05;;
4226;SDS011;2127;51.046;7.080;2024-01-11T00:08:10;1.10;;;1.10;;
4226;SDS011;2127;51.046;7.080;2024-01-11T00:10:37;0.63;;;0.63;;
4226;SDS011;2127;51.046;7.080;2024-01-11T00:13:03;1.60;;;1.58;;
4226;SDS011;2127;51.046;7.080;2024-01-11T00:15:30;0.82;;;0.82;;
4226;SDS011;2127;51.046;7.080;2024-01-11T00:17:56;0.90;;;0.90;;
4226;SDS011;2127;51.046;7.080;2024-01-11T00:20:24;11.98;;;1.52;;
4226;SDS011;2127;51.046;7.080;2024-01-11T00:22:50;0.50;;;0.50;;
4226;SDS011;2127;51.046;7.080;2024-01-11T00:25:16;1.40;;;1.30;;
4226;SDS011;2127;51.046;7.080;2024-01-11T00:27:42;0.60;;;0.60;;
4226;SDS011;2127;51.046;7.080;2024-01-11T00:30:09;0.60;;;0.60;;
4226;SDS011;2127;51.046;7.080;2024-01-11T00:32:35;3.25;;;0.63;;
4226;SDS011;2127;51.046;7.080;2024-01-11T00:35:01;0.98;;;0.90;;
4226;SDS011;2127;51.046;7.080;2024-01-11T00:37:29;4.45;;;1.40;;
4226;SDS011;2127;51.046;7.080;2024-01-11T00:39:55;1.00;;;1.00;;
4226;SDS011;2127;51.046;7.080;2024-01-11T00:42:22;1.17;;;1.10;;
4226;SDS011;2127;51.046;7.080;2024-01-11T00:44:48;3.50;;;1.98;;
4226;SDS011;2127;51.046;7.080;2024-01-11T00:47:14;1.00;;;0.80;;
4226;SDS011;2127;51.046;7.080;2024-01-11T00:49:41;0.40;;;0.40;;
4226;SDS011;2127;51.046;7.080;2024-01-11T00:52:08;0.28;;;0.28;;
4226;SDS011;2127;51.046;7.080;2024-01-11T00:54:35;0.47;;;0.47;;
4226;SDS011;2127;51.046;7.080;2024-01-11T00:57:02;0.43;;;0.43;;
4226;SDS011;2127;51.046;7.080;2024-01-11T00:59:28;1.30;;;1.20;;
4226;SDS011;2127;51.046;7.080;2024-01-11T01:01:54;1.27;;;1.17;;
4226;SDS011;2127;51.046;7.080;2024-01-11T01:04:21;8.10;;;1.73;;
4226;SDS011;2127;51.046;7.080;2024-01-11T01:06:47;0.52;;;0.52;;
4226;SDS011;2127;51.046;7.080;2024-01-11T01:09:13;1.05;;;1.05;;
4226;SDS011;2127;51.046;7.080;2024-01-11T01:11:41;0.68;;;0.68;;
4226;SDS011;2127;51.046;7.080;2024-01-11T01:14:07;0.50;;;0.50;;
4226;SDS011;2127;51.046;7.080;2024-01-11T01:16:34;6.18;;;1.60;;
4226;SDS011;2127;51.046;7.080;2024-01-11T01:19:00;0.50;;;0.50;;
4226;SDS011;2127;51.046;7.080;2024-01-11T01:21:26;2.03;;;1.92;;
4226;SDS011;2127;51.046;7.080;2024-01-11T01:23:53;0.90;;;0.90;;
4226;SDS011;2127;51.046;7.080;2024-01-11T01:26:19;0.82;;;0.57;;
4226;SDS011;2127;51.046;7.080;2024-01-11T01:28:47;0.80;;;0.80;;
4226;SDS011;2127;51.046;7.080;2024-01-11T01:31:13;1.00;;;1.00;;
4226;SDS011;2127;51.046;7.080;2024-01-11T01:33:40;1.85;;;0.43;;
4226;SDS011;2127;51.046;7.080;2024-01-11T01:36:07;1.35;;;1.27;;
4226;SDS011;2127;51.046;7.080;2024-01-11T01:38:34;1.00;;;1.00;;
4226;SDS011;2127;51.046;7.080;2024-01-11T01:41:00;0.82;;;0.65;;
4226;SDS011;2127;51.046;7.080;2024-01-11T01:43:26;8.55;;;1.85;;
4226;SDS011;2127;51.046;7.080;2024-01-11T01:45:54;1.85;;;0.80;;
4226;SDS011;2127;51.046;7.080;2024-01-11T01:48:20;1.10;;;1.10;;
4226;SDS011;2127;51.046;7.080;2024-01-11T01:50:47;0.98;;;0.98;;
4226;SDS011;2127;51.046;7.080;2024-01-11T01:53:16;1.23;;;0.45;;
4226;SDS011;2127;51.046;7.080;2024-01-11T01:55:42;0.73;;;0.73;;
4226;SDS011;2127;51.046;7.080;2024-01-11T01:58:09;2.17;;;2.08;;
4226;SDS011;2127;51.046;7.080;2024-01-11T02:00:35;2.40;;;2.22;;
4226;SDS011;2127;51.046;7.080;2024-01-11T02:03:03;0.50;;;0.50;;
4226;SDS011;2127;51.046;7.080;2024-01-11T02:05:30;0.65;;;0.65;;
4226;SDS011;2127;51.046;7.080;2024-01-11T02:07:56;0.60;;;0.60;;
4226;SDS011;2127;51.046;7.080;2024-01-11T02:10:23;0.30;;;0.30;;
4226;SDS011;2127;51.046;7.080;2024-01-11T02:12:49;0.40;;;0.40;;
4226;SDS011;2127;51.046;7.080;2024-01-11T02:15:16;0.77;;;0.77;;
4226;SDS011;2127;51.046;7.080;2024-01-11T02:17:42;1.60;;;1.55;;
4226;SDS011;2127;51.046;7.080;2024-01-11T02:20:10;1.65;;;1.35;;
4226;SDS011;2127;51.046;7.080;2024-01-11T02:22:38;0.70;;;0.70;;
4226;SDS011;2127;51.046;7.080;2024-01-11T02:25:06;3.67;;;1.73;;
4226;SDS011;2127;51.046;7.080;2024-01-11T02:27:44;4.80;;;0.73;;
4226;SDS011;2127;51.046;7.080;2024-01-11T02:30:11;1.48;;;1.40;;
4226;SDS011;2127;51.046;7.080;2024-01-11T02:32:37;0.93;;;0.93;;
4226;SDS011;2127;51.046;7.080;2024-01-11T02:35:04;1.02;;;1.02;;
4226;SDS011;2127;51.046;7.080;2024-01-11T02:37:30;0.80;;;0.80;;
4226;SDS011;2127;51.046;7.080;2024-01-11T02:39:56;0.35;;;0.35;;
4226;SDS011;2127;51.046;7.080;2024-01-11T02:42:24;8.98;;;1.02;;
4226;SDS011;2127;51.046;7.080;2024-01-11T02:44:51;0.60;;;0.60;;
4226;SDS011;2127;51.046;7.080;2024-01-11T02:47:18;0.95;;;0.95;;
4226;SDS011;2127;51.046;7.080;2024-01-11T02:49:44;0.50;;;0.50;;
4226;SDS011;2127;51.046;7.080;2024-01-11T02:52:10;2.10;;;1.90;;
4226;SDS011;2127;51.046;7.080;2024-01-11T02:54:37;0.82;;;0.82;;
4226;SDS011;2127;51.046;7.080;2024-01-11T02:57:03;0.68;;;0.68;;
4226;SDS011;2127;51.046;7.080;2024-01-11T02:59:32;2.35;;;1.33;;
4226;SDS011;2127;51.046;7.080;2024-01-11T03:01:58;0.63;;;0.63;;
4226;SDS011;2127;51.046;7.080;2024-01-11T03:04:25;0.47;;;0.47;;
4226;SDS011;2127;51.046;7.080;2024-01-11T03:06:51;1.83;;;1.35;;
4226;SDS011;2127;51.046;7.080;2024-01-11T03:09:17;4.68;;;1.63;;
4226;SDS011;2127;51.046;7.080;2024-01-11T03:11:43;11.73;;;2.25;;
4226;SDS011;2127;51.046;7.080;2024-01-11T03:14:10;0.40;;;0.40;;
4226;SDS011;2127;51.046;7.080;2024-01-11T03:16:37;0.45;;;0.45;;
4226;SDS011;2127;51.046;7.080;2024-01-11T03:19:05;2.33;;;2.22;;
4226;SDS011;2127;51.046;7.080;2024-01-11T03:21:31;0.95;;;0.95;;
4226;SDS011;2127;51.046;7.080;2024-01-11T03:23:57;2.25;;;1.08;;
4226;SDS011;2127;51.046;7.080;2024-01-11T03:26:24;0.77;;;0.77;;
4226;SDS011;2127;51.046;7.080;2024-01-11T03:28:51;1.75;;;0.90;;
4226;SDS011;2127;51.046;7.080;2024-01-11T03:31:17;0.60;;;0.60;;
4226;SDS011;2127;51.046;7.080;2024-01-11T03:33:45;0.68;;;0.68;;
4226;SDS011;2127;51.046;7.080;2024-01-11T03:36:11;11.57;;;1.67;;
4226;SDS011;2127;51.046;7.080;2024-01-11T03:38:37;4.53;;;3.25;;
4226;SDS011;2127;51.046;7.080;2024-01-11T03:41:07;0.20;;;0.20;;
4226;SDS011;2127;51.046;7.080;2024-01-11T03:43:33;0.85;;;0.85;;
4226;SDS011;2127;51.046;7.080;2024-01-11T03:46:00;0.50;;;0.50;;
4226;SDS011;2127;51.046;7.080;2024-01-11T03:48:26;3.95;;;1.88;;
4226;SDS011;2127;51.046;7.080;2024-01-11T03:50:54;4.22;;;1.15;;
4226;SDS011;2127;51.046;7.080;2024-01-11T03:53:20;1.23;;;1.20;;
4226;SDS011;2127;51.046;7.080;2024-01-11T03:55:46;0.30;;;0.30;;
4226;SDS011;2127;51.046;7.080;2024-01-11T03:58:12;0.57;;;0.57;;
4226;SDS011;2127;51.046;7.080;2024-01-11T04:00:39;0.30;;;0.30;;
4226;SDS011;2127;51.046;7.080;2024-01-11T04:03:06;0.65;;;0.65;;
4226;SDS011;2127;51.046;7.080;2024-01-11T04:05:32;5.85;;;3.20;;
4226;SDS011;2127;51.046;7.080;2024-01-11T04:07:59;1.33;;;1.27;;
4226;SDS011;2127;51.046;7.080;2024-01-11T04:10:26;0.50;;;0.50;;
4226;SDS011;2127;51.046;7.080;2024-01-11T04:12:52;0.88;;;0.85;;
4226;SDS011;2127;51.046;7.080;2024-01-11T04:15:18;0.30;;;0.30;;
4226;SDS011;2127;51.046;7.080;2024-01-11T04:17:45;6.80;;;2.40;;
4226;SDS011;2127;51.046;7.080;2024-01-11T04:20:11;2.38;;;0.95;;
4226;SDS011;2127;51.046;7.080;2024-01-11T04:22:37;1.10;;;1.00;;
4226;SDS011;2127;51.046;7.080;2024-01-11T04:25:06;1.85;;;1.75;;
4226;SDS011;2127;51.046;7.080;2024-01-11T04:27:32;0.45;;;0.45;;
4226;SDS011;2127;51.046;7.080;2024-01-11T04:29:59;1.52;;;1.48;;
4226;SDS011;2127;51.046;7.080;2024-01-11T04:32:25;1.10;;;1.02;;
4226;SDS011;2127;51.046;7.080;2024-01-11T04:34:51;1.17;;;0.75;;
4226;SDS011;2127;51.046;7.080;2024-01-11T04:37:17;5.07;;;1.65;;
4226;SDS011;2127;51.046;7.080;2024-01-11T04:39:44;2.17;;;2.08;;
4226;SDS011;2127;51.046;7.080;2024-01-11T04:42:11;5.65;;;0.85;;
4226;SDS011;2127;51.046;7.080;2024-01-11T04:44:38;1.15;;;1.15;;
4226;SDS011;2127;51.046;7.080;2024-01-11T04:47:05;1.00;;;1.00;;
4226;SDS011;2127;51.046;7.080;2024-01-11T04:49:31;4.78;;;0.75;;
4226;SDS011;2127;51.046;7.080;2024-01-11T04:51:57;0.70;;;0.70;;
4226;SDS011;2127;51.046;7.080;2024-01-11T04:54:24;1.35;;;1.35;;
4226;SDS011;2127;51.046;7.080;2024-01-11T04:56:50;1.50;;;1.50;;
4226;SDS011;2127;51.046;7.080;2024-01-11T04:59:18;1.02;;;1.00;;
4226;SDS011;2127;51.046;7.080;2024-01-11T05:01:45;0.90;;;0.90;;
4226;SDS011;2127;51.046;7.080;2024-01-11T05:04:11;0.40;;;0.40;;
4226;SDS011;2127;51.046;7.080;2024-01-11T05:06:37;1.02;;;0.60;;
4226;SDS011;2127;51.046;7.080;2024-01-11T05:09:04;2.88;;;0.82;;
4226;SDS011;2127;51.046;7.080;2024-01-11T05:11:30;11.35;;;1.00;;
4226;SDS011;2127;51.046;7.080;2024-01-11T05:13:57;2.03;;;1.92;;
4226;SDS011;2127;51.046;7.080;2024-01-11T05:16:25;1.55;;;1.55;;
4226;SDS011;2127;51.046;7.080;2024-01-11T05:18:52;0.45;;;0.45;;
4226;SDS011;2127;51.046;7.080;2024-01-11T05:21:18;1.15;;;0.75;;
4226;SDS011;2127;51.046;7.080;2024-01-11T05:23:45;11.70;;;2.72;;
4226;SDS011;2127;51.046;7.080;2024-01-11T05:26:12;1.23;;;0.88;;
4226;SDS011;2127;51.046;7.080;2024-01-11T05:28:38;2.42;;;2.25;;
4226;SDS011;2127;51.046;7.080;2024-01-11T05:31:05;2.65;;;0.73;;
4226;SDS011;2127;51.046;7.080;2024-01-11T05:33:33;0.55;;;0.55;;
4226;SDS011;2127;51.046;7.080;2024-01-11T05:35:59;3.60;;;1.50;;
4226;SDS011;2127;51.046;7.080;2024-01-11T05:38:25;0.55;;;0.50;;
4226;SDS011;2127;51.046;7.080;2024-01-11T05:40:52;2.05;;;0.82;;
4226;SDS011;2127;51.046;7.080;2024-01-11T05:43:18;0.90;;;0.90;;
4226;SDS011;2127;51.046;7.080;2024-01-11T05:45:44;6.65;;;2.58;;
4226;SDS011;2127;51.046;7.080;2024-01-11T05:48:11;1.05;;;1.00;;
4226;SDS011;2127;51.046;7.080;2024-01-11T05:50:38;1.63;;;1.30;;
4226;SDS011;2127;51.046;7.080;2024-01-11T05:53:05;0.30;;;0.30;;
4226;SDS011;2127;51.046;7.080;2024-01-11T05:55:31;1.73;;;1.63;;
4226;SDS011;2127;51.046;7.080;2024-01-11T05:57:57;6.68;;;0.95;;
4226;SDS011;2127;51.046;7.080;2024-01-11T06:00:23;1.05;;;0.98;;
4226;SDS011;2127;51.046;7.080;2024-01-11T06:02:50;0.20;;;0.20;;
4226;SDS011;2127;51.046;7.080;2024-01-11T06:05:16;2.55;;;1.30;;
4226;SDS011;2127;51.046;7.080;2024-01-11T06:07:44;0.20;;;0.20;;
4226;SDS011;2127;51.046;7.080;2024-01-11T06:10:10;0.68;;;0.68;;
4226;SDS011;2127;51.046;7.080;2024-01-11T06:12:36;1.95;;;0.70;;
4226;SDS011;2127;51.046;7.080;2024-01-11T06:15:03;0.60;;;0.60;;
4226;SDS011;2127;51.046;7.080;2024-01-11T06:17:29;3.50;;;1.58;;
4226;SDS011;2127;51.046;7.080;2024-01-11T06:19:55;2.35;;;0.70;;
4226;SDS011;2127;51.046;7.080;2024-01-11T06:22:22;2.13;;;2.08;;
4226;SDS011;2127;51.046;7.080;2024-01-11T06:24:49;0.40;;;0.40;;
4226;SDS011;2127;51.046;7.080;2024-01-11T06:27:16;1.52;;;1.42;;
4226;SDS011;2127;51.046;7.080;2024-01-11T06:29:42;0.65;;;0.65;;
4226;SDS011;2127;51.046;7.080;2024-01-11T06:32:12;1.33;;;1.00;;
4226;SDS011;2127;51.046;7.080;2024-01-11T06:34:39;0.77;;;0.77;;
4226;SDS011;2127;51.046;7.080;2024-01-11T06:37:08;1.02;;;1.02;;
4226;SDS011;2127;51.046;7.080;2024-01-11T06:39:35;2.20;;;2.10;;
4226;SDS011;2127;51.046;7.080;2024-01-11T06:42:03;3.40;;;2.58;;
4226;SDS011;2127;51.046;7.080;2024-01-11T06:44:30;1.77;;;1.27;;
4226;SDS011;2127;51.046;7.080;2024-01-11T06:46:56;0.30;;;0.30;;
4226;SDS011;2127;51.046;7.080;2024-01-11T06:49:23;0.70;;;0.70;;
4226;SDS011;2127;51.046;7.080;2024-01-11T06:51:49;1.23;;;1.10;;
4226;SDS011;2127;51.046;7.080;2024-01-11T06:54:15;2.00;;;1.90;;
4226;SDS011;2127;51.046;7.080;2024-01-11T06:56:41;0.50;;;0.50;;
4226;SDS011;2127;51.046;7.080;2024-01-11T06:59:09;0.50;;;0.50;;
4226;SDS011;2127;51.046;7.080;2024-01-11T07:01:35;1.23;;;1.23;;
4226;SDS011;2127;51.046;7.080;2024-01-11T07:04:02;0.40;;;0.40;;
4226;SDS011;2127;51.046;7.080;2024-01-11T07:06:28;1.15;;;0.70;;
4226;SDS011;2127;51.046;7.080;2024-01-11T07:08:54;0.52;;;0.52;;
4226;SDS011;2127;51.046;7.080;2024-01-11T07:11:21;0.60;;;0.60;;
4226;SDS011;2127;51.046;7.080;2024-01-11T07:13:47;0.50;;;0.50;;
4226;SDS011;2127;51.046;7.080;2024-01-11T07:16:15;1.40;;;1.30;;
4226;SDS011;2127;51.046;7.080;2024-01-11T07:18:41;2.25;;;1.00;;
4226;SDS011;2127;51.046;7.080;2024-01-11T07:21:07;1.95;;;1.58;;
4226;SDS011;2127;51.046;7.080;2024-01-11T07:23:33;3.38;;;1.25;;
4226;SDS011;2127;51.046;7.080;2024-01-11T07:26:00;0.55;;;0.55;;
4226;SDS011;2127;51.046;7.080;2024-01-11T07:28:26;3.03;;;1.42;;
4226;SDS011;2127;51.046;7.080;2024-01-11T07:30:52;4.57;;;1.80;;
4226;SDS011;2127;51.046;7.080;2024-01-11T07:33:20;0.95;;;0.95;;
4226;SDS011;2127;51.046;7.080;2024-01-11T07:35:46;0.52;;;0.52;;
4226;SDS011;2127;51.046;7.080;2024-01-11T07:38:13;0.20;;;0.20;;
4226;SDS011;2127;51.046;7.080;2024-01-11T07:40:39;1.55;;;1.55;;
4226;SDS011;2127;51.046;7.080;2024-01-11T07:43:05;1.23;;;1.02;;
4226;SDS011;2127;51.046;7.080;2024-01-11T07:45:32;0.43;;;0.43;;
4226;SDS011;2127;51.046;7.080;2024-01-11T07:47:58;6.03;;;1.17;;
4226;SDS011;2127;51.046;7.080;2024-01-11T07:50:26;1.10;;;0.73;;
4226;SDS011;2127;51.046;7.080;2024-01-11T07:52:52;0.20;;;0.20;;
4226;SDS011;2127;51.046;7.080;2024-01-11T07:55:19;0.95;;;0.95;;
4226;SDS011;2127;51.046;7.080;2024-01-11T07:57:49;0.60;;;0.60;;
4226;SDS011;2127;51.046;7.080;2024-01-11T08:00:15;1.17;;;1.17;;
4226;SDS011;2127;51.046;7.080;2024-01-11T08:02:42;0.93;;;0.93;;
4226;SDS011;2127;51.046;7.080;2024-01-11T08:05:08;0.90;;;0.90;;
4226;SDS011;2127;51.046;7.080;2024-01-11T08:07:36;1.20;;;1.20;;
4226;SDS011;2127;51.046;7.080;2024-01-11T08:10:02;0.43;;;0.43;;
4226;SDS011;2127;51.046;7.080;2024-01-11T08:12:29;0.82;;;0.82;;
4226;SDS011;2127;51.046;7.080;2024-01-11T08:14:55;0.93;;;0.88;;
4226;SDS011;2127;51.046;7.080;2024-01-11T08:17:21;0.30;;;0.30;;
4226;SDS011;2127;51.046;7.080;2024-01-11T08:19:48;1.27;;;1.27;;
4226;SDS011;2127;51.046;7.080;2024-01-11T08:22:14;1.70;;;1.15;;
4226;SDS011;2127;51.046;7.080;2024-01-11T08:24:42;0.20;;;0.20;;
4226;SDS011;2127;51.046;7.080;2024-01-11T08:27:08;0.32;;;0.32;;
4226;SDS011;2127;51.046;7.080;2024-01-11T08:29:35;1.58;;;1.58;;
4226;SDS011;2127;51.046;7.080;2024-01-11T08:32:01;2.08;;;1.27;;
4226;SDS011;2127;51.046;7.080;2024-01-11T08:34:29;0.52;;;0.52;;
4226;SDS011;2127;51.046;7.080;2024-01-11T08:36:55;0.30;;;0.30;;
4226;SDS011;2127;51.046;7.080;2024-01-11T08:39:22;0.28;;;0.28;;
4226;SDS011;2127;51.046;7.080;2024-01-11T08:41:49;3.65;;;1.55;;
4226;SDS011;2127;51.046;7.080;2024-01-11T08:44:15;1.38;;;1.35;;
4226;SDS011;2127;51.046;7.080;2024-01-11T08:46:43;0.40;;;0.40;;
4226;SDS011;2127;51.046;7.080;2024-01-11T08:49:10;0.80;;;0.80;;
4226;SDS011;2127;51.046;7.080;2024-01-11T08:51:36;0.85;;;0.85;;
4226;SDS011;2127;51.046;7.080;2024-01-11T08:54:02;0.20;;;0.20;;
4226;SDS011;2127;51.046;7.080;2024-01-11T08:56:29;2.90;;;2.80;;
4226;SDS011;2127;51.046;7.080;2024-01-11T08:58:56;1.75;;;0.73;;
4226;SDS011;2127;51.046;7.080;2024-01-11T09:01:24;1.48;;;1.38;;
4226;SDS011;2127;51.046;7.080;2024-01-11T09:03:50;1.40;;;1.20;;
4226;SDS011;2127;51.046;7.080;2024-01-11T09:06:16;2.65;;;1.33;;
4226;SDS011;2127;51.046;7.080;2024-01-11T09:08:42;1.67;;;1.52;;
4226;SDS011;2127;51.046;7.080;2024-01-11T09:11:09;3.33;;;1.08;;
4226;SDS011;2127;51.046;7.080;2024-01-11T09:13:36;7.38;;;1.70;;
4226;SDS011;2127;51.046;7.080;2024-01-11T09:16:04;0.77;;;0.77;;
4226;SDS011;2127;51.046;7.080;2024-01-11T09:18:32;1.13;;;1.13;;
4226;SDS011;2127;51.046;7.080;2024-01-11T09:20:58;0.63;;;0.63;;
4226;SDS011;2127;51.046;7.080;2024-01-11T09:23:24;0.80;;;0.80;;
4226;SDS011;2127;51.046;7.080;2024-01-11T09:25:50;1.30;;;1.30;;
4226;SDS011;2127;51.046;7.080;2024-01-11T09:28:17;1.52;;;1.42;;
4226;SDS011;2127;51.046;7.080;2024-01-11T09:30:43;1.60;;;1.60;;
4226;SDS011;2127;51.046;7.080;2024-01-11T09:33:11;2.78;;;1.33;;
4226;SDS011;2127;51.046;7.080;2024-01-11T09:35:37;0.52;;;0.52;;
4226;SDS011;2127;51.046;7.080;2024-01-11T09:38:04;5.20;;;1.05;;
4226;SDS011;2127;51.046;7.080;2024-01-11T09:40:31;1.30;;;1.30;;
4226;SDS011;2127;51.046;7.080;2024-01-11T09:42:57;4.78;;;1.55;;
4226;SDS011;2127;51.046;7.080;2024-01-11T09:45:23;0.90;;;0.90;;
4226;SDS011;2127;51.046;7.080;2024-01-11T09:47:50;3.70;;;1.60;;
4226;SDS011;2127;51.046;7.080;2024-01-11T09:50:19;1.15;;;1.00;;
4226;SDS011;2127;51.046;7.080;2024-01-11T09:52:47;2.78;;;2.78;;
4226;SDS011;2127;51.046;7.080;2024-01-11T09:55:13;2.78;;;1.67;;
4226;SDS011;2127;51.046;7.080;2024-01-11T09:57:41;4.22;;;2.50;;
4226;SDS011;2127;51.046;7.080;2024-01-11T10:00:07;0.30;;;0.30;;
4226;SDS011;2127;51.046;7.080;2024-01-11T10:02:34;3.13;;;0.57;;
4226;SDS011;2127;51.046;7.080;2024-01-11T10:05:01;2.63;;;1.33;;
4226;SDS011;2127;51.046;7.080;2024-01-11T10:07:29;1.00;;;1.00;;
4226;SDS011;2127;51.046;7.080;2024-01-11T10:09:56;5.60;;;2.53;;
4226;SDS011;2127;51.046;7.080;2024-01-11T10:12:23;1.00;;;1.00;;
4226;SDS011;2127;51.046;7.080;2024-01-11T10:14:50;0.45;;;0.45;;
4226;SDS011;2127;51.046;7.080;2024-01-11T10:17:16;0.90;;;0.90;;
4226;SDS011;2127;51.046;7.080;2024-01-11T10:19:43;2.67;;;2.40;;
4226;SDS011;2127;51.046;7.080;2024-01-11T10:22:09;9.32;;;2.33;;
4226;SDS011;2127;51.046;7.080;2024-01-11T10:24:39;12.68;;;3.10;;
4226;SDS011;2127;51.046;7.080;2024-01-11T10:27:08;1.02;;;0.85;;
4226;SDS011;2127;51.046;7.080;2024-01-11T10:29:34;2.47;;;0.95;;
4226;SDS011;2127;51.046;7.080;2024-01-11T10:32:01;2.20;;;2.15;;
4226;SDS011;2127;51.046;7.080;2024-01-11T10:34:29;2.00;;;1.52;;
4226;SDS011;2127;51.046;7.080;2024-01-11T10:36:55;1.90;;;1.48;;
4226;SDS011;2127;51.046;7.080;2024-01-11T10:39:23;1.42;;;1.33;;
4226;SDS011;2127;51.046;7.080;2024-01-11T10:41:52;0.50;;;0.50;;
4226;SDS011;2127;51.046;7.080;2024-01-11T10:44:21;1.50;;;1.50;;
4226;SDS011;2127;51.046;7.080;2024-01-11T10:46:48;2.45;;;2.35;;
4226;SDS011;2127;51.046;7.080;2024-01-11T10:49:16;3.08;;;1.75;;
4226;SDS011;2127;51.046;7.080;2024-01-11T10:51:43;1.98;;;1.88;;
4226;SDS011;2127;51.046;7.080;2024-01-11T10:54:11;0.95;;;0.95;;
4226;SDS011;2127;51.046;7.080;2024-01-11T10:56:39;0.73;;;0.73;;
4226;SDS011;2127;51.046;7.080;2024-01-11T10:59:10;9.25;;;2.28;;
4226;SDS011;2127;51.046;7.080;2024-01-11T11:01:37;0.50;;;0.50;;
4226;SDS011;2127;51.046;7.080;2024-01-11T11:04:04;1.63;;;1.63;;
4226;SDS011;2127;51.046;7.080;2024-01-11T11:06:31;2.53;;;2.33;;
4226;SDS011;2127;51.046;7.080;2024-01-11T11:08:57;1.00;;;1.00;;
4226;SDS011;2127;51.046;7.080;2024-01-11T11:11:24;1.70;;;1.65;;
4226;SDS011;2127;51.046;7.080;2024-01-11T11:13:50;1.25;;;1.25;;
4226;SDS011;2127;51.046;7.080;2024-01-11T11:16:19;0.85;;;0.85;;
4226;SDS011;2127;51.046;7.080;2024-01-11T11:18:45;2.25;;;1.70;;
4226;SDS011;2127;51.046;7.080;2024-01-11T11:21:12;2.75;;;2.65;;
4226;SDS011;2127;51.046;7.080;2024-01-11T11:23:38;1.30;;;0.82;;
4226;SDS011;2127;51.046;7.080;2024-01-11T11:26:05;2.78;;;2.70;;
4226;SDS011;2127;51.046;7.080;2024-01-11T11:28:32;1.63;;;1.63;;
4226;SDS011;2127;51.046;7.080;2024-01-11T11:30:59;7.10;;;3.15;;
4226;SDS011;2127;51.046;7.080;2024-01-11T11:33:29;3.90;;;0.68;;
4226;SDS011;2127;51.046;7.080;2024-01-11T11:35:56;0.70;;;0.70;;
4226;SDS011;2127;51.046;7.080;2024-01-11T11:38:24;2.25;;;1.60;;
4226;SDS011;2127;51.046;7.080;2024-01-11T11:40:52;6.30;;;1.88;;
4226;SDS011;2127;51.046;7.080;2024-01-11T11:43:18;3.38;;;0.60;;
4226;SDS011;2127;51.046;7.080;2024-01-11T11:45:45;2.63;;;2.35;;
4226;SDS011;2127;51.046;7.080;2024-01-11T11:51:07;5.53;;;2.80;;
4226;SDS011;2127;51.046;7.080;2024-01-11T11:53:33;2.90;;;1.88;;
4226;SDS011;2127;51.046;7.080;2024-01-11T11:56:00;1.50;;;1.50;;
4226;SDS011;2127;51.046;7.080;2024-01-11T11:58:27;3.70;;;1.40;;
4226;SDS011;2127;51.046;7.080;2024-01-11T12:00:53;1.77;;;1.77;;
4226;SDS011;2127;51.046;7.080;2024-01-11T12:03:20;1.83;;;1.70;;
4226;SDS011;2127;51.046;7.080;2024-01-11T12:05:50;2.80;;;2.33;;
4226;SDS011;2127;51.046;7.080;2024-01-11T12:08:17;4.10;;;2.67;;
4226;SDS011;2127;51.046;7.080;2024-01-11T12:10:44;1.15;;;1.15;;
4226;SDS011;2127;51.046;7.080;2024-01-11T12:13:10;1.75;;;1.40;;
4226;SDS011;2127;51.046;7.080;2024-01-11T12:15:37;2.83;;;2.63;;
4226;SDS011;2127;51.046;7.080;2024-01-11T12:18:03;2.42;;;1.45;;
4226;SDS011;2127;51.046;7.080;2024-01-11T12:20:30;12.90;;;6.32;;
4226;SDS011;2127;51.046;7.080;2024-01-11T12:22:56;19.77;;;7.93;;
4226;SDS011;2127;51.046;7.080;2024-01-11T12:25:25;9.82;;;4.53;;
4226;SDS011;2127;51.046;7.080;2024-01-11T12:27:52;7.35;;;4.05;;
4226;SDS011;2127;51.046;7.080;2024-01-11T12:30:18;6.25;;;1.85;;
4226;SDS011;2127;51.046;7.080;2024-01-11T12:32:44;4.95;;;4.60;;
4226;SDS011;2127;51.046;7.080;2024-01-11T12:35:11;8.50;;;7.10;;
4226;SDS011;2127;51.046;7.080;2024-01-11T12:37:37;2.60;;;2.58;;
4226;SDS011;2127;51.046;7.080;2024-01-11T12:40:04;1.42;;;1.42;;
4226;SDS011;2127;51.046;7.080;2024-01-11T12:42:32;3.25;;;3.15;;
4226;SDS011;2127;51.046;7.080;2024-01-11T12:45:00;1.05;;;1.05;;
4226;SDS011;2127;51.046;7.080;2024-01-11T12:47:26;6.45;;;2.33;;
4226;SDS011;2127;51.046;7.080;2024-01-11T12:49:52;2.35;;;1.42;;
4226;SDS011;2127;51.046;7.080;2024-01-11T12:52:19;2.67;;;2.47;;
4226;SDS011;2127;51.046;7.080;2024-01-11T12:54:45;1.90;;;1.80;;
4226;SDS011;2127;51.046;7.080;2024-01-11T12:57:11;0.60;;;0.60;;
4226;SDS011;2127;51.046;7.080;2024-01-11T12:59:39;1.98;;;1.88;;
4226;SDS011;2127;51.046;7.080;2024-01-11T13:02:06;2.75;;;1.50;;
4226;SDS011;2127;51.046;7.080;2024-01-11T13:04:33;1.60;;;1.50;;
4226;SDS011;2127;51.046;7.080;2024-01-11T13:06:59;11.90;;;1.70;;
4226;SDS011;2127;51.046;7.080;2024-01-11T13:09:26;2.80;;;2.60;;
4226;SDS011;2127;51.046;7.080;2024-01-11T13:11:52;3.28;;;2.83;;
4226;SDS011;2127;51.046;7.080;2024-01-11T13:14:19;1.15;;;1.15;;
4226;SDS011;2127;51.046;7.080;2024-01-11T13:16:46;2.00;;;1.90;;
4226;SDS011;2127;51.046;7.080;2024-01-11T13:19:13;0.90;;;0.90;;
4226;SDS011;2127;51.046;7.080;2024-01-11T13:21:40;1.73;;;1.63;;
4226;SDS011;2127;51.046;7.080;2024-01-11T13:24:06;15.32;;;2.15;;
4226;SDS011;2127;51.046;7.080;2024-01-11T13:26:33;0.85;;;0.85;;
4226;SDS011;2127;51.046;7.080;2024-01-11T13:28:59;1.20;;;1.20;;
4226;SDS011;2127;51.046;7.080;2024-01-11T13:31:26;4.40;;;3.13;;
4226;SDS011;2127;51.046;7.080;2024-01-11T13:33:53;1.80;;;1.02;;
4226;SDS011;2127;51.046;7.080;2024-01-11T13:36:20;8.10;;;2.33;;
4226;SDS011;2127;51.046;7.080;2024-01-11T13:38:46;1.55;;;1.45;;
4226;SDS011;2127;51.046;7.080;2024-01-11T13:41:13;5.55;;;2.90;;
4226;SDS011;2127;51.046;7.080;2024-01-11T13:43:39;6.93;;;1.50;;
4226;SDS011;2127;51.046;7.080;2024-01-11T13:46:05;1.33;;;1.25;;
4226;SDS011;2127;51.046;7.080;2024-01-11T13:48:32;8.35;;;3.05;;
4226;SDS011;2127;51.046;7.080;2024-01-11T13:50:59;4.43;;;4.07;;
4226;SDS011;2127;51.046;7.080;2024-01-11T13:53:28;4.90;;;4.47;;
4226;SDS011;2127;51.046;7.080;2024-01-11T13:55:54;4.05;;;3.80;;
4226;SDS011;2127;51.046;7.080;2024-01-11T13:58:20;5.70;;;5.18;;
4226;SDS011;2127;51.046;7.080;2024-01-11T14:00:47;5.00;;;3.85;;
4226;SDS011;2127;51.046;7.080;2024-01-11T14:03:13;6.00;;;5.50;;
4226;SDS011;2127;51.046;7.080;2024-01-11T14:05:39;5.35;;;4.95;;
4226;SDS011;2127;51.046;7.080;2024-01-11T14:08:08;13.32;;;3.83;;
4226;SDS011;2127;51.046;7.080;2024-01-11T14:10:34;5.85;;;4.75;;
4226;SDS011;2127;51.046;7.080;2024-01-11T14:13:01;7.78;;;4.65;;
4226;SDS011;2127;51.046;7.080;2024-01-11T14:15:28;10.55;;;4.53;;
4226;SDS011;2127;51.046;7.080;2024-01-11T14:17:54;5.15;;;4.13;;
4226;SDS011;2127;51.046;7.080;2024-01-11T14:20:20;19.42;;;4.68;;
4226;SDS011;2127;51.046;7.080;2024-01-11T14:22:47;3.85;;;3.47;;
4226;SDS011;2127;51.046;7.080;2024-01-11T14:25:18;5.97;;;4.30;;
4226;SDS011;2127;51.046;7.080;2024-01-11T14:27:44;4.22;;;3.30;;
4226;SDS011;2127;51.046;7.080;2024-01-11T14:30:11;16.73;;;4.32;;
4226;SDS011;2127;51.046;7.080;2024-01-11T14:32:37;3.25;;;3.05;;
4226;SDS011;2127;51.046;7.080;2024-01-11T14:35:04;2.35;;;2.25;;
4226;SDS011;2127;51.046;7.080;2024-01-11T14:37:31;6.93;;;5.20;;
4226;SDS011;2127;51.046;7.080;2024-01-11T14:39:57;9.32;;;6.90;;
4226;SDS011;2127;51.046;7.080;2024-01-11T14:42:26;7.55;;;4.82;;
4226;SDS011;2127;51.046;7.080;2024-01-11T14:44:52;8.23;;;3.88;;
4226;SDS011;2127;51.046;7.080;2024-01-11T14:47:19;10.57;;;5.72;;
4226;SDS011;2127;51.046;7.080;2024-01-11T14:49:45;4.20;;;3.20;;
4226;SDS011;2127;51.046;7.080;2024-01-11T14:52:11;23.98;;;5.57;;
4226;SDS011;2127;51.046;7.080;2024-01-11T14:54:37;8.35;;;5.40;;
4226;SDS011;2127;51.046;7.080;2024-01-11T14:57:04;10.57;;;5.85;;
4226;SDS011;2127;51.046;7.080;2024-01-11T14:59:31;6.43;;;5.47;;
4226;SDS011;2127;51.046;7.080;2024-01-11T15:01:57;10.63;;;5.35;;
4226;SDS011;2127;51.046;7.080;2024-01-11T15:04:24;7.80;;;4.35;;
4226;SDS011;2127;51.046;7.080;2024-01-11T15:06:51;6.00;;;4.78;;
4226;SDS011;2127;51.046;7.080;2024-01-11T15:09:17;6.05;;;5.25;;
4226;SDS011;2127;51.046;7.080;2024-01-11T15:11:43;5.65;;;4.00;;
4226;SDS011;2127;51.046;7.080;2024-01-11T15:14:09;6.28;;;5.47;;